createdAt,value
2018-11-06T00:00:42.706Z,100174.83
2018-11-06T00:04:15.070Z,100167.68
2018-11-06T00:06:44.465Z,100171.69
2018-11-06T00:09:14.187Z,100169.60
2018-11-06T00:11:43.589Z,100165.87
2018-11-06T00:14:12.955Z,100166.89
2018-11-06T00:16:42.926Z,100169.50
2018-11-06T00:19:12.359Z,100159.98
2018-11-06T00:21:41.742Z,100162.31
2018-11-06T00:24:11.310Z,100161.02
2018-11-06T00:26:40.699Z,100153.94
2018-11-06T00:29:10.132Z,100163.18
2018-11-06T00:31:39.536Z,100160.75
2018-11-06T00:34:09.199Z,100157.85
2018-11-06T00:36:38.652Z,100156.72
2018-11-06T00:39:09.151Z,100159.63
2018-11-06T00:41:39.074Z,100152.31
2018-11-06T00:44:08.709Z,100154.77
2018-11-06T00:46:38.086Z,100141.43
2018-11-06T00:49:07.518Z,100143.55
2018-11-06T00:51:37.218Z,100150.19
2018-11-06T00:54:07.158Z,100152.37
2018-11-06T00:56:37.002Z,100149.50
2018-11-06T00:59:06.447Z,100152.52
2018-11-06T01:01:35.858Z,100161.38
2018-11-06T01:04:07.424Z,100159.66
2018-11-06T01:06:36.924Z,100165.85
2018-11-06T01:09:11.345Z,100159.83
2018-11-06T01:11:41.573Z,100159.02
2018-11-06T01:14:10.951Z,100164.76
2018-11-06T01:16:41.199Z,100171.36
2018-11-06T01:19:11.192Z,100169.23
2018-11-06T01:21:40.569Z,100172.34
2018-11-06T01:24:10.563Z,100174.44
2018-11-06T01:26:39.922Z,100175.05
2018-11-06T01:29:09.650Z,100164.08
2018-11-06T01:31:39.003Z,100169.34
2018-11-06T01:34:08.524Z,100172.05
2018-11-06T01:36:37.978Z,100170.75
2018-11-06T01:39:09.219Z,100173.14
2018-11-06T01:41:39.194Z,100179.67
2018-11-06T01:44:09.107Z,100167.53
2018-11-06T01:46:38.548Z,100169.95
2018-11-06T01:49:07.981Z,100174.44
2018-11-06T01:51:37.663Z,100169.09
2018-11-06T01:54:07.067Z,100155.20
2018-11-06T01:56:36.643Z,100150.80
2018-11-06T01:59:07.318Z,100155.03
2018-11-06T02:01:36.745Z,100160.40
2018-11-06T02:04:06.220Z,100155.87
2018-11-06T02:06:35.725Z,100153.72
2018-11-06T02:09:07.560Z,100152.36
2018-11-06T02:11:36.926Z,100163.33
2018-11-06T02:14:06.864Z,100155.53
2018-11-06T02:16:36.293Z,100150.40
2018-11-06T02:19:06.042Z,100140.95
2018-11-06T02:21:35.432Z,100143.91
2018-11-06T02:24:05.726Z,100138.06
2018-11-06T02:26:35.063Z,100137.62
2018-11-06T02:29:04.498Z,100142.95
2018-11-06T02:31:33.907Z,100141.01
2018-11-06T02:34:03.767Z,100139.15
2018-11-06T02:36:33.181Z,100132.05
2018-11-06T02:39:02.537Z,100126.44
2018-11-06T02:41:32.055Z,100129.45
2018-11-06T02:44:01.482Z,100127.73
2018-11-06T02:46:30.901Z,100120.86
2018-11-06T02:49:00.307Z,100122.53
2018-11-06T02:51:30.179Z,100118.03
2018-11-06T02:53:59.750Z,100113.72
2018-11-06T02:56:29.222Z,100099.94
2018-11-06T02:58:59.709Z,100098.47
2018-11-06T03:01:29.127Z,100099.39
2018-11-06T03:03:58.598Z,100112.39
2018-11-06T03:06:27.988Z,100124.12
2018-11-06T03:08:57.889Z,100123.95
2018-11-06T03:11:27.294Z,100141.59
2018-11-06T03:13:56.799Z,100138.31
2018-11-06T03:16:26.197Z,100138.07
2018-11-06T03:18:55.554Z,100145.42
2018-11-06T03:21:25.105Z,100150.80
2018-11-06T03:23:54.479Z,100140.91
2018-11-06T03:26:23.921Z,100132.53
2018-11-06T03:28:53.434Z,100115.26
2018-11-06T03:31:22.805Z,100106.16
2018-11-06T03:33:52.202Z,100107.80
2018-11-06T03:36:21.597Z,100114.98
2018-11-06T03:38:50.972Z,100113.62
2018-11-06T03:41:20.354Z,100121.48
2018-11-06T03:43:49.770Z,100128.19
2018-11-06T03:46:19.212Z,100149.44
2018-11-06T03:48:48.658Z,100158.43
2018-11-06T03:51:18.054Z,100149.44
2018-11-06T03:53:47.571Z,100167.77
2018-11-06T03:56:17.569Z,100174.31
2018-11-06T03:58:47.093Z,100167.47
2018-11-06T04:01:16.490Z,100166.30
2018-11-06T04:03:45.890Z,100159.21
2018-11-06T04:06:15.270Z,100162.67
2018-11-06T04:08:44.650Z,100160.24
2018-11-06T04:11:14.175Z,100160.34
2018-11-06T04:13:43.672Z,100163.39
2018-11-06T04:16:13.225Z,100168.26
2018-11-06T04:18:42.635Z,100163.30
2018-11-06T04:21:12.023Z,100147.80
2018-11-06T04:23:41.574Z,100146.12
2018-11-06T04:26:10.950Z,100139.69
2018-11-06T04:28:40.330Z,100148.72
2018-11-06T04:31:09.680Z,100147.76
2018-11-06T04:33:39.160Z,100141.77
2018-11-06T04:36:08.567Z,100146.33
2018-11-06T04:38:37.965Z,100141.09
2018-11-06T04:41:07.327Z,100150.13
2018-11-06T04:43:36.875Z,100147.24
2018-11-06T04:46:06.503Z,100142.99
2018-11-06T04:48:35.971Z,100149.05
2018-11-06T04:51:05.887Z,100144.31
2018-11-06T04:53:35.821Z,100136.16
2018-11-06T04:56:05.561Z,100138.20
2018-11-06T04:58:34.914Z,100137.16
2018-11-06T05:01:04.749Z,100139.25
2018-11-06T05:03:34.328Z,100144.12
2018-11-06T05:06:03.738Z,100132.55
2018-11-06T05:08:33.167Z,100135.27
2018-11-06T05:11:02.560Z,100138.76
2018-11-06T05:13:32.076Z,100142.66
2018-11-06T05:16:01.544Z,100132.73
2018-11-06T05:18:30.934Z,100127.05
2018-11-06T05:21:00.323Z,100110.13
2018-11-06T05:23:29.702Z,100102.73
2018-11-06T05:25:59.524Z,100099.69
2018-11-06T05:28:29.180Z,100094.41
2018-11-06T05:30:59.094Z,100093.96
2018-11-06T05:33:28.537Z,100087.91
2018-11-06T05:35:57.944Z,100091.92
2018-11-06T05:38:27.448Z,100091.28
2018-11-06T05:41:01.155Z,100090.95
2018-11-06T05:43:30.561Z,100096.76
2018-11-06T05:46:00.154Z,100095.19
2018-11-06T05:48:29.678Z,100090.25
2018-11-06T05:50:59.078Z,100096.83
2018-11-06T05:53:28.498Z,100102.44
2018-11-06T05:55:57.985Z,100114.34
2018-11-06T05:58:27.389Z,100129.54
2018-11-06T06:00:56.792Z,100127.19
2018-11-06T06:03:26.172Z,100138.11
2018-11-06T06:05:55.587Z,100150.16
2018-11-06T06:08:24.983Z,100144.14
2018-11-06T06:10:54.381Z,100150.88
2018-11-06T06:13:23.816Z,100156.34
2018-11-06T06:15:53.174Z,100154.08
2018-11-06T06:18:22.721Z,100153.01
2018-11-06T06:20:52.101Z,100154.75
2018-11-06T06:23:21.630Z,100153.12
2018-11-06T06:25:51.034Z,100158.37
2018-11-06T06:28:20.652Z,100155.87
2018-11-06T06:30:50.083Z,100167.16
2018-11-06T06:33:19.696Z,100165.30
2018-11-06T06:35:49.159Z,100163.45
2018-11-06T06:38:18.564Z,100170.98
2018-11-06T06:40:48.492Z,100162.61
2018-11-06T06:43:17.991Z,100169.80
2018-11-06T06:45:47.393Z,100162.67
2018-11-06T06:48:18.012Z,100164.94
2018-11-06T06:50:47.514Z,100166.41
2018-11-06T06:53:17.010Z,100168.45
2018-11-06T06:55:46.440Z,100174.48
2018-11-06T06:58:15.788Z,100182.97
2018-11-06T07:00:45.167Z,100186.08
2018-11-06T07:03:14.570Z,100193.36
2018-11-06T07:05:43.971Z,100205.86
2018-11-06T07:08:13.670Z,100207.16
2018-11-06T07:10:43.058Z,100204.83
2018-11-06T07:13:12.721Z,100203.50
2018-11-06T07:15:42.641Z,100205.48
2018-11-06T07:18:12.010Z,100200.77
